sensor_id;sensor_type;location;lat;lon;timestamp;pressure;altitude;pressure_sealevel;temperature;humidity
10646;BME280;5371;49.782;9.932;2023-03-20T00:00:45;99798.53;;;9.75;100.00
10646;BME280;5371;49.782;9.932;2023-03-20T00:03:13;99792.66;;;9.88;100.00
10646;BME280;5371;49.782;9.932;2023-03-20T00:05:40;99796.03;;;9.90;100.00
10646;BME280;5371;49.782;9.932;2023-03-20T00:08:07;99797.03;;;9.87;100.00
10646;BME280;5371;49.782;9.932;2023-03-20T00:10:36;99802.25;;;9.87;100.00
10646;BME280;5371;49.782;9.932;2023-03-20T00:13:07;99800.25;;;9.92;100.00
10646;BME280;5371;49.782;9.932;2023-03-20T00:15:38;99794.50;;;9.86;100.00
10646;BME280;5371;49.782;9.932;2023-03-20T00:18:13;99793.59;;;10.02;100.00
10646;BME280;5371;49.782;9.932;2023-03-20T00:20:43;99788.91;;;10.09;100.00
10646;BME280;5371;49.782;9.932;2023-03-20T00:23:10;99781.44;;;10.19;100.00
10646;BME280;5371;49.782;9.932;2023-03-20T00:25:38;99783.91;;;10.04;100.00
10646;BME280;5371;49.782;9.932;2023-03-20T00:28:27;99786.72;;;10.01;100.00
10646;BME280;5371;49.782;9.932;2023-03-20T00:30:57;99794.00;;;9.95;100.00
10646;BME280;5371;49.782;9.932;2023-03-20T00:33:24;99797.81;;;9.89;100.00
10646;BME280;5371;49.782;9.932;2023-03-20T00:35:53;99788.78;;;9.95;100.00
10646;BME280;5371;49.782;9.932;2023-03-20T00:38:20;99789.06;;;10.06;100.00
10646;BME280;5371;49.782;9.932;2023-03-20T00:40:47;99787.13;;;10.09;100.00
10646;BME280;5371;49.782;9.932;2023-03-20T00:43:16;99790.75;;;10.07;100.00
10646;BME280;5371;49.782;9.932;2023-03-20T00:45:45;99792.34;;;10.09;100.00
10646;BME280;5371;49.782;9.932;2023-03-20T00:48:13;99791.88;;;10.19;100.00
10646;BME280;5371;49.782;9.932;2023-03-20T00:50:41;99794.50;;;10.19;100.00
10646;BME280;5371;49.782;9.932;2023-03-20T00:53:09;99794.91;;;10.27;100.00
10646;BME280;5371;49.782;9.932;2023-03-20T00:55:38;99790.59;;;10.26;100.00
10646;BME280;5371;49.782;9.932;2023-03-20T00:58:06;99786.78;;;10.00;100.00
10646;BME280;5371;49.782;9.932;2023-03-20T01:00:37;99792.34;;;10.09;100.00
10646;BME280;5371;49.782;9.932;2023-03-20T01:03:11;99794.78;;;9.81;100.00
10646;BME280;5371;49.782;9.932;2023-03-20T01:05:40;99799.75;;;10.01;100.00
10646;BME280;5371;49.782;9.932;2023-03-20T01:08:12;99794.53;;;10.17;100.00
10646;BME280;5371;49.782;9.932;2023-03-20T01:10:40;99793.06;;;10.29;100.00
10646;BME280;5371;49.782;9.932;2023-03-20T01:13:16;99797.94;;;10.35;100.00
10646;BME280;5371;49.782;9.932;2023-03-20T01:15:45;99794.81;;;10.28;100.00
10646;BME280;5371;49.782;9.932;2023-03-20T01:18:13;99800.13;;;10.27;100.00
10646;BME280;5371;49.782;9.932;2023-03-20T01:20:41;99791.53;;;10.25;100.00
10646;BME280;5371;49.782;9.932;2023-03-20T01:23:09;99791.00;;;10.34;100.00
10646;BME280;5371;49.782;9.932;2023-03-20T01:25:36;99789.69;;;10.27;100.00
10646;BME280;5371;49.782;9.932;2023-03-20T01:28:12;99797.72;;;10.06;100.00
10646;BME280;5371;49.782;9.932;2023-03-20T01:30:39;99803.53;;;10.11;100.00
10646;BME280;5371;49.782;9.932;2023-03-20T01:33:13;99808.03;;;10.09;100.00
10646;BME280;5371;49.782;9.932;2023-03-20T01:35:42;99805.47;;;9.92;100.00
10646;BME280;5371;49.782;9.932;2023-03-20T01:38:14;99808.69;;;9.97;100.00
10646;BME280;5371;49.782;9.932;2023-03-20T01:40:50;99811.44;;;9.94;100.00
10646;BME280;5371;49.782;9.932;2023-03-20T01:43:21;99816.75;;;9.93;100.00
10646;BME280;5371;49.782;9.932;2023-03-20T01:45:56;99815.16;;;9.90;100.00
10646;BME280;5371;49.782;9.932;2023-03-20T01:48:35;99821.38;;;10.03;100.00
10646;BME280;5371;49.782;9.932;2023-03-20T01:51:03;99815.09;;;10.07;100.00
10646;BME280;5371;49.782;9.932;2023-03-20T01:53:30;99828.00;;;10.10;100.00
10646;BME280;5371;49.782;9.932;2023-03-20T01:56:00;99830.75;;;10.07;100.00
10646;BME280;5371;49.782;9.932;2023-03-20T01:58:40;99830.91;;;10.04;100.00
10646;BME280;5371;49.782;9.932;2023-03-20T02:01:10;99825.88;;;10.01;100.00
10646;BME280;5371;49.782;9.932;2023-03-20T02:03:45;99840.59;;;10.02;100.00
10646;BME280;5371;49.782;9.932;2023-03-20T02:06:32;99835.44;;;9.85;100.00
10646;BME280;5371;49.782;9.932;2023-03-20T02:09:28;99830.75;;;9.92;100.00
10646;BME280;5371;49.782;9.932;2023-03-20T02:11:57;99837.59;;;9.77;100.00
10646;BME280;5371;49.782;9.932;2023-03-20T02:14:25;99832.66;;;9.72;100.00
10646;BME280;5371;49.782;9.932;2023-03-20T02:17:04;99833.75;;;9.84;100.00
10646;BME280;5371;49.782;9.932;2023-03-20T02:20:07;99842.41;;;9.69;100.00
10646;BME280;5371;49.782;9.932;2023-03-20T02:23:03;99838.59;;;9.74;100.00
10646;BME280;5371;49.782;9.932;2023-03-20T02:29:24;99839.06;;;9.50;100.00
10646;BME280;5371;49.782;9.932;2023-03-20T02:35:23;99837.13;;;9.53;100.00
10646;BME280;5371;49.782;9.932;2023-03-20T02:38:11;99842.09;;;9.58;100.00
10646;BME280;5371;49.782;9.932;2023-03-20T02:40:43;99838.13;;;9.51;100.00
10646;BME280;5371;49.782;9.932;2023-03-20T02:43:19;99828.97;;;9.59;100.00
10646;BME280;5371;49.782;9.932;2023-03-20T02:45:52;99832.00;;;9.52;100.00
10646;BME280;5371;49.782;9.932;2023-03-20T02:48:32;99825.72;;;9.38;100.00
10646;BME280;5371;49.782;9.932;2023-03-20T02:51:10;99826.97;;;9.31;100.00
10646;BME280;5371;49.782;9.932;2023-03-20T02:53:48;99833.63;;;9.37;100.00
10646;BME280;5371;49.782;9.932;2023-03-20T02:56:23;99835.09;;;9.25;100.00
10646;BME280;5371;49.782;9.932;2023-03-20T02:58:59;99835.03;;;9.10;100.00
10646;BME280;5371;49.782;9.932;2023-03-20T03:01:30;99828.59;;;9.17;100.00
10646;BME280;5371;49.782;9.932;2023-03-20T03:04:02;99830.50;;;9.13;100.00
10646;BME280;5371;49.782;9.932;2023-03-20T03:06:41;99827.88;;;9.13;100.00
10646;BME280;5371;49.782;9.932;2023-03-20T03:09:13;99841.38;;;9.21;100.00
10646;BME280;5371;49.782;9.932;2023-03-20T03:11:47;99840.31;;;9.25;100.00
10646;BME280;5371;49.782;9.932;2023-03-20T03:14:20;99836.34;;;9.18;100.00
10646;BME280;5371;49.782;9.932;2023-03-20T03:16:51;99847.22;;;9.26;100.00
10646;BME280;5371;49.782;9.932;2023-03-20T03:19:23;99832.13;;;8.98;100.00
10646;BME280;5371;49.782;9.932;2023-03-20T03:21:52;99844.53;;;9.11;100.00
10646;BME280;5371;49.782;9.932;2023-03-20T03:24:27;99841.31;;;9.23;100.00
10646;BME280;5371;49.782;9.932;2023-03-20T03:26:57;99840.41;;;8.89;100.00
10646;BME280;5371;49.782;9.932;2023-03-20T03:29:30;99848.28;;;9.05;100.00
10646;BME280;5371;49.782;9.932;2023-03-20T03:32:00;99856.88;;;9.07;100.00
10646;BME280;5371;49.782;9.932;2023-03-20T03:34:28;99850.81;;;9.24;100.00
10646;BME280;5371;49.782;9.932;2023-03-20T03:37:01;99849.50;;;9.32;100.00
10646;BME280;5371;49.782;9.932;2023-03-20T03:39:38;99849.66;;;9.29;100.00
10646;BME280;5371;49.782;9.932;2023-03-20T03:42:13;99847.44;;;9.39;100.00
10646;BME280;5371;49.782;9.932;2023-03-20T03:44:48;99848.44;;;9.36;100.00
10646;BME280;5371;49.782;9.932;2023-03-20T03:47:22;99850.13;;;9.37;100.00
10646;BME280;5371;49.782;9.932;2023-03-20T03:49:54;99845.09;;;9.00;100.00
10646;BME280;5371;49.782;9.932;2023-03-20T03:52:24;99838.78;;;8.87;100.00
10646;BME280;5371;49.782;9.932;2023-03-20T03:54:59;99841.97;;;8.75;100.00
10646;BME280;5371;49.782;9.932;2023-03-20T03:57:31;99843.69;;;8.93;100.00
10646;BME280;5371;49.782;9.932;2023-03-20T04:00:03;99854.94;;;8.93;100.00
10646;BME280;5371;49.782;9.932;2023-03-20T04:02:39;99856.13;;;9.05;100.00
10646;BME280;5371;49.782;9.932;2023-03-20T04:05:08;99852.97;;;8.98;100.00
10646;BME280;5371;49.782;9.932;2023-03-20T04:07:35;99857.28;;;9.17;100.00
10646;BME280;5371;49.782;9.932;2023-03-20T04:10:05;99854.88;;;9.12;100.00
10646;BME280;5371;49.782;9.932;2023-03-20T04:12:35;99859.56;;;9.23;100.00
10646;BME280;5371;49.782;9.932;2023-03-20T04:15:04;99864.25;;;9.16;100.00
10646;BME280;5371;49.782;9.932;2023-03-20T04:17:32;99868.69;;;9.14;100.00
10646;BME280;5371;49.782;9.932;2023-03-20T04:20:00;99868.16;;;9.08;100.00
10646;BME280;5371;49.782;9.932;2023-03-20T04:22:27;99863.16;;;9.20;100.00
10646;BME280;5371;49.782;9.932;2023-03-20T04:24:57;99870.63;;;9.28;100.00
10646;BME280;5371;49.782;9.932;2023-03-20T04:27:28;99867.78;;;9.15;100.00
10646;BME280;5371;49.782;9.932;2023-03-20T04:29:55;99879.50;;;9.24;100.00
10646;BME280;5371;49.782;9.932;2023-03-20T04:32:42;99878.34;;;9.12;100.00
10646;BME280;5371;49.782;9.932;2023-03-20T04:35:32;99877.16;;;9.19;100.00
10646;BME280;5371;49.782;9.932;2023-03-20T04:38:04;99881.13;;;9.26;100.00
10646;BME280;5371;49.782;9.932;2023-03-20T04:40:33;99882.19;;;9.22;100.00
10646;BME280;5371;49.782;9.932;2023-03-20T04:43:03;99885.25;;;9.30;100.00
10646;BME280;5371;49.782;9.932;2023-03-20T04:45:30;99883.09;;;9.38;100.00
10646;BME280;5371;49.782;9.932;2023-03-20T04:47:58;99878.53;;;9.26;100.00
10646;BME280;5371;49.782;9.932;2023-03-20T04:50:26;99876.75;;;9.27;100.00
10646;BME280;5371;49.782;9.932;2023-03-20T04:52:53;99879.84;;;9.18;100.00
10646;BME280;5371;49.782;9.932;2023-03-20T04:55:20;99877.34;;;9.32;100.00
10646;BME280;5371;49.782;9.932;2023-03-20T04:57:48;99883.81;;;9.42;100.00
10646;BME280;5371;49.782;9.932;2023-03-20T05:00:17;99880.03;;;9.48;100.00
10646;BME280;5371;49.782;9.932;2023-03-20T05:02:45;99884.66;;;9.43;100.00
10646;BME280;5371;49.782;9.932;2023-03-20T05:05:15;99885.41;;;9.45;100.00
10646;BME280;5371;49.782;9.932;2023-03-20T05:07:43;99889.41;;;9.52;100.00
10646;BME280;5371;49.782;9.932;2023-03-20T05:10:16;99891.63;;;9.08;100.00
10646;BME280;5371;49.782;9.932;2023-03-20T05:12:54;99896.84;;;9.25;100.00
10646;BME280;5371;49.782;9.932;2023-03-20T17:52:13;77782.19;;;-142.70;0.00
10646;BME280;5371;49.782;9.932;2023-03-20T17:54:40;77782.19;;;-142.70;0.00
10646;BME280;5371;49.782;9.932;2023-03-20T17:59:01;99847.94;;;14.03;80.73
10646;BME280;5371;49.782;9.932;2023-03-20T18:01:31;99841.91;;;13.64;83.94
10646;BME280;5371;49.782;9.932;2023-03-20T18:03:58;99853.31;;;13.25;87.61
10646;BME280;5371;49.782;9.932;2023-03-20T18:06:27;99847.25;;;12.98;90.72
10646;BME280;5371;49.782;9.932;2023-03-20T18:08:56;99847.63;;;12.79;92.61
10646;BME280;5371;49.782;9.932;2023-03-20T18:11:24;99842.13;;;12.69;93.00
10646;BME280;5371;49.782;9.932;2023-03-20T18:13:51;99845.84;;;12.53;93.09
10646;BME280;5371;49.782;9.932;2023-03-20T18:16:22;99851.94;;;12.53;94.04
10646;BME280;5371;49.782;9.932;2023-03-20T18:18:50;99847.78;;;12.63;92.74
10646;BME280;5371;49.782;9.932;2023-03-20T18:21:17;99848.63;;;12.64;95.26
10646;BME280;5371;49.782;9.932;2023-03-20T18:23:44;99855.31;;;12.55;96.33
10646;BME280;5371;49.782;9.932;2023-03-20T18:26:18;99851.50;;;12.47;96.97
10646;BME280;5371;49.782;9.932;2023-03-20T18:28:45;99857.84;;;12.43;99.08
10646;BME280;5371;49.782;9.932;2023-03-20T18:31:13;99857.31;;;12.38;100.00
10646;BME280;5371;49.782;9.932;2023-03-20T18:33:45;99858.00;;;12.13;100.00
10646;BME280;5371;49.782;9.932;2023-03-20T18:36:14;99857.94;;;12.00;100.00
10646;BME280;5371;49.782;9.932;2023-03-20T18:38:42;99867.00;;;11.94;100.00
10646;BME280;5371;49.782;9.932;2023-03-20T18:41:10;99865.56;;;12.03;100.00
10646;BME280;5371;49.782;9.932;2023-03-20T18:43:37;99858.00;;;12.13;100.00
10646;BME280;5371;49.782;9.932;2023-03-20T18:46:05;99857.81;;;12.16;100.00
10646;BME280;5371;49.782;9.932;2023-03-20T18:48:32;99861.72;;;12.23;100.00
10646;BME280;5371;49.782;9.932;2023-03-20T18:51:01;99861.66;;;12.10;100.00
10646;BME280;5371;49.782;9.932;2023-03-20T18:53:29;99864.81;;;12.15;100.00
10646;BME280;5371;49.782;9.932;2023-03-20T18:55:56;99864.91;;;12.14;94.45
10646;BME280;5371;49.782;9.932;2023-03-20T18:58:25;99868.84;;;12.07;93.22
10646;BME280;5371;49.782;9.932;2023-03-20T19:00:53;99870.91;;;11.87;94.38
10646;BME280;5371;49.782;9.932;2023-03-20T19:03:22;99869.22;;;11.86;92.35
10646;BME280;5371;49.782;9.932;2023-03-20T19:05:50;99871.31;;;11.81;92.74
10646;BME280;5371;49.782;9.932;2023-03-20T19:08:19;99867.00;;;11.80;88.12
10646;BME280;5371;49.782;9.932;2023-03-20T19:10:47;99879.34;;;11.78;87.72
10646;BME280;5371;49.782;9.932;2023-03-20T19:13:17;99876.47;;;11.83;85.52
10646;BME280;5371;49.782;9.932;2023-03-20T19:15:45;99880.63;;;11.71;83.50
10646;BME280;5371;49.782;9.932;2023-03-20T19:18:14;99878.72;;;11.59;83.63
10646;BME280;5371;49.782;9.932;2023-03-20T19:20:43;99884.81;;;11.59;82.03
10646;BME280;5371;49.782;9.932;2023-03-20T19:23:11;99879.09;;;11.53;80.31
10646;BME280;5371;49.782;9.932;2023-03-20T19:25:42;99881.34;;;11.59;80.15
10646;BME280;5371;49.782;9.932;2023-03-20T19:28:17;99874.03;;;11.50;79.00
10646;BME280;5371;49.782;9.932;2023-03-20T19:30:45;99880.41;;;11.60;78.92
10646;BME280;5371;49.782;9.932;2023-03-20T19:33:13;99879.00;;;11.69;78.25
10646;BME280;5371;49.782;9.932;2023-03-20T19:35:40;99880.16;;;11.65;77.99
10646;BME280;5371;49.782;9.932;2023-03-20T19:38:12;99882.47;;;11.69;77.69
10646;BME280;5371;49.782;9.932;2023-03-20T19:40:42;99882.78;;;11.65;76.57
10646;BME280;5371;49.782;9.932;2023-03-20T19:43:10;99885.09;;;11.55;77.88
10646;BME280;5371;49.782;9.932;2023-03-20T19:45:39;99888.19;;;11.61;77.51
10646;BME280;5371;49.782;9.932;2023-03-20T19:48:13;99887.81;;;11.68;77.11
10646;BME280;5371;49.782;9.932;2023-03-20T19:50:41;99885.09;;;11.69;76.41
10646;BME280;5371;49.782;9.932;2023-03-20T19:53:11;99887.25;;;11.62;76.64
10646;BME280;5371;49.782;9.932;2023-03-20T19:55:40;99886.41;;;11.62;77.83
10646;BME280;5371;49.782;9.932;2023-03-20T19:58:07;99882.94;;;11.61;77.18
10646;BME280;5371;49.782;9.932;2023-03-20T20:00:36;99887.81;;;11.68;76.37
10646;BME280;5371;49.782;9.932;2023-03-20T20:03:05;99892.09;;;11.54;76.58
10646;BME280;5371;49.782;9.932;2023-03-20T20:05:33;99885.03;;;11.41;75.91
10646;BME280;5371;49.782;9.932;2023-03-20T20:08:02;99886.75;;;11.42;76.86
10646;BME280;5371;49.782;9.932;2023-03-20T20:10:31;99887.13;;;11.50;75.24
10646;BME280;5371;49.782;9.932;2023-03-20T20:13:01;99887.03;;;11.51;75.20
10646;BME280;5371;49.782;9.932;2023-03-20T20:15:28;99890.72;;;11.63;71.79
10646;BME280;5371;49.782;9.932;2023-03-20T20:17:56;99888.09;;;11.63;72.33
10646;BME280;5371;49.782;9.932;2023-03-20T20:20:24;99885.19;;;11.53;70.78
10646;BME280;5371;49.782;9.932;2023-03-20T20:22:52;99886.38;;;11.48;68.91
10646;BME280;5371;49.782;9.932;2023-03-20T20:25:19;99890.66;;;11.49;68.54
10646;BME280;5371;49.782;9.932;2023-03-20T20:27:47;99894.66;;;11.40;67.81
10646;BME280;5371;49.782;9.932;2023-03-20T20:30:17;99890.47;;;11.38;68.93
10646;BME280;5371;49.782;9.932;2023-03-20T20:32:45;99895.28;;;11.30;69.42
10646;BME280;5371;49.782;9.932;2023-03-20T20:35:13;99885.50;;;11.33;68.01
10646;BME280;5371;49.782;9.932;2023-03-20T20:37:41;99885.88;;;11.41;67.10
10646;BME280;5371;49.782;9.932;2023-03-20T20:40:10;99887.25;;;11.18;67.79
10646;BME280;5371;49.782;9.932;2023-03-20T20:42:39;99886.81;;;11.26;68.88
10646;BME280;5371;49.782;9.932;2023-03-20T20:45:09;99884.94;;;11.28;67.87
10646;BME280;5371;49.782;9.932;2023-03-20T20:47:41;99884.66;;;11.33;67.92
10646;BME280;5371;49.782;9.932;2023-03-20T20:50:10;99880.56;;;11.43;67.46
10646;BME280;5371;49.782;9.932;2023-03-20T20:52:38;99880.69;;;11.55;66.57
10646;BME280;5371;49.782;9.932;2023-03-20T20:55:08;99882.50;;;11.39;66.28
10646;BME280;5371;49.782;9.932;2023-03-20T20:57:36;99888.59;;;11.40;65.90
10646;BME280;5371;49.782;9.932;2023-03-20T21:00:04;99894.88;;;11.37;67.07
10646;BME280;5371;49.782;9.932;2023-03-20T21:02:34;99893.34;;;11.33;66.47
10646;BME280;5371;49.782;9.932;2023-03-20T21:05:09;99900.44;;;11.31;66.27
10646;BME280;5371;49.782;9.932;2023-03-20T21:07:37;99899.44;;;11.34;67.68
10646;BME280;5371;49.782;9.932;2023-03-20T21:10:08;99903.19;;;11.44;66.82
10646;BME280;5371;49.782;9.932;2023-03-20T21:12:35;99901.44;;;11.44;68.11
10646;BME280;5371;49.782;9.932;2023-03-20T21:15:04;99902.34;;;11.43;69.92
10646;BME280;5371;49.782;9.932;2023-03-20T21:17:31;99899.38;;;11.49;68.89
10646;BME280;5371;49.782;9.932;2023-03-20T21:19:58;99903.28;;;11.42;67.77
10646;BME280;5371;49.782;9.932;2023-03-20T21:22:27;99887.97;;;11.50;65.36
10646;BME280;5371;49.782;9.932;2023-03-20T21:24:54;99886.75;;;11.42;66.18
10646;BME280;5371;49.782;9.932;2023-03-20T21:27:21;99887.09;;;11.36;66.54
10646;BME280;5371;49.782;9.932;2023-03-20T21:29:49;99897.25;;;11.26;67.20
10646;BME280;5371;49.782;9.932;2023-03-20T21:32:18;99894.25;;;11.18;67.65
10646;BME280;5371;49.782;9.932;2023-03-20T21:34:46;99892.09;;;11.10;67.97
10646;BME280;5371;49.782;9.932;2023-03-20T21:37:14;99897.72;;;11.03;68.37
10646;BME280;5371;49.782;9.932;2023-03-20T21:39:43;99899.78;;;10.98;68.08
10646;BME280;5371;49.782;9.932;2023-03-20T21:42:11;99901.47;;;10.99;68.80
10646;BME280;5371;49.782;9.932;2023-03-20T21:44:39;99901.69;;;11.10;67.40
10646;BME280;5371;49.782;9.932;2023-03-20T21:47:06;99898.66;;;11.02;67.37
10646;BME280;5371;49.782;9.932;2023-03-20T21:49:33;99900.47;;;10.85;68.20
10646;BME280;5371;49.782;9.932;2023-03-20T21:52:00;99899.00;;;10.96;67.95
10646;BME280;5371;49.782;9.932;2023-03-20T21:54:27;99887.59;;;11.12;67.14
10646;BME280;5371;49.782;9.932;2023-03-20T21:56:56;99889.97;;;11.31;66.30
10646;BME280;5371;49.782;9.932;2023-03-20T21:59:23;99887.34;;;11.17;66.81
10646;BME280;5371;49.782;9.932;2023-03-20T22:01:50;99880.19;;;11.05;67.57
10646;BME280;5371;49.782;9.932;2023-03-20T22:04:17;99889.81;;;11.04;67.06
10646;BME280;5371;49.782;9.932;2023-03-20T22:06:44;99886.19;;;11.07;67.96
10646;BME280;5371;49.782;9.932;2023-03-20T22:09:11;99887.53;;;10.98;68.37
10646;BME280;5371;49.782;9.932;2023-03-20T22:11:38;99888.19;;;11.02;68.40
10646;BME280;5371;49.782;9.932;2023-03-20T22:14:07;99890.91;;;11.00;68.52
10646;BME280;5371;49.782;9.932;2023-03-20T22:16:34;99880.34;;;11.02;68.20
10646;BME280;5371;49.782;9.932;2023-03-20T22:19:01;99888.19;;;11.02;69.01
10646;BME280;5371;49.782;9.932;2023-03-20T22:21:28;99886.34;;;11.04;68.97
10646;BME280;5371;49.782;9.932;2023-03-20T22:23:55;99896.88;;;11.18;68.32
10646;BME280;5371;49.782;9.932;2023-03-20T22:26:22;99893.72;;;11.27;68.24
10646;BME280;5371;49.782;9.932;2023-03-20T22:28:50;99897.25;;;11.26;68.73
10646;BME280;5371;49.782;9.932;2023-03-20T22:31:18;99902.09;;;11.18;69.81
10646;BME280;5371;49.782;9.932;2023-03-20T22:33:45;99906.81;;;11.11;69.99
10646;BME280;5371;49.782;9.932;2023-03-20T22:36:15;99903.72;;;11.05;69.40
10646;BME280;5371;49.782;9.932;2023-03-20T22:38:42;99902.13;;;11.02;70.49
10646;BME280;5371;49.782;9.932;2023-03-20T22:41:11;99897.00;;;10.85;71.54
10646;BME280;5371;49.782;9.932;2023-03-20T22:43:38;99897.16;;;10.98;72.48
10646;BME280;5371;49.782;9.932;2023-03-20T22:46:07;99900.03;;;10.93;72.41
10646;BME280;5371;49.782;9.932;2023-03-20T22:48:36;99893.53;;;10.84;75.26
10646;BME280;5371;49.782;9.932;2023-03-20T22:51:04;99896.69;;;10.91;76.32
10646;BME280;5371;49.782;9.932;2023-03-20T22:53:32;99891.25;;;10.94;76.25
10646;BME280;5371;49.782;9.932;2023-03-20T22:55:59;99892.56;;;11.17;73.21
10646;BME280;5371;49.782;9.932;2023-03-20T22:58:26;99887.66;;;11.11;72.90
10646;BME280;5371;49.782;9.932;2023-03-20T23:00:54;99886.75;;;11.12;72.24
10646;BME280;5371;49.782;9.932;2023-03-20T23:03:22;99882.63;;;11.08;72.00
10646;BME280;5371;49.782;9.932;2023-03-20T23:05:50;99882.94;;;11.17;73.35
10646;BME280;5371;49.782;9.932;2023-03-20T23:08:18;99883.63;;;11.05;75.87
10646;BME280;5371;49.782;9.932;2023-03-20T23:10:47;99882.88;;;11.03;74.37
10646;BME280;5371;49.782;9.932;2023-03-20T23:13:15;99887.06;;;10.92;76.60
10646;BME280;5371;49.782;9.932;2023-03-20T23:15:44;99882.44;;;10.81;79.63
10646;BME280;5371;49.782;9.932;2023-03-20T23:18:11;99887.38;;;10.85;80.18
10646;BME280;5371;49.782;9.932;2023-03-20T23:20:38;99882.56;;;10.94;79.77
10646;BME280;5371;49.782;9.932;2023-03-20T23:23:07;99886.41;;;10.72;77.80
10646;BME280;5371;49.782;9.932;2023-03-20T23:25:34;99889.84;;;10.57;77.94
10646;BME280;5371;49.782;9.932;2023-03-20T23:28:01;99890.13;;;10.53;79.02
10646;BME280;5371;49.782;9.932;2023-03-20T23:30:28;99891.47;;;10.60;78.58
10646;BME280;5371;49.782;9.932;2023-03-20T23:32:55;99884.06;;;10.52;78.62
10646;BME280;5371;49.782;9.932;2023-03-20T23:35:22;99883.72;;;10.58;77.79
10646;BME280;5371;49.782;9.932;2023-03-20T23:37:49;99888.50;;;10.50;78.64
10646;BME280;5371;49.782;9.932;2023-03-20T23:40:20;99886.06;;;10.47;79.51
10646;BME280;5371;49.782;9.932;2023-03-20T23:42:47;99889.63;;;10.46;80.71
10646;BME280;5371;49.782;9.932;2023-03-20T23:45:14;99873.59;;;10.52;80.70
10646;BME280;5371;49.782;9.932;2023-03-20T23:47:41;99876.97;;;10.54;81.14
10646;BME280;5371;49.782;9.932;2023-03-20T23:50:09;99878.56;;;10.57;80.52
10646;BME280;5371;49.782;9.932;2023-03-20T23:52:36;99883.63;;;10.60;79.51
10646;BME280;5371;49.782;9.932;2023-03-20T23:55:03;99870.91;;;10.54;79.47
10646;BME280;5371;49.782;9.932;2023-03-20T23:57:32;99874.53;;;10.51;80.14
10646;BME280;5371;49.782;9.932;2023-03-20T23:59:59;99867.59;;;10.50;80.02
